sensor_id;sensor_type;location;lat;lon;timestamp;pressure;altitude;pressure_sealevel;temperature;humidity
20752;BME280;10536;51.582;5.016;2022-12-07T00:03:14;101878.63;;;8.42;100.00
20752;BME280;10536;51.582;5.016;2022-12-07T00:08:14;101875.22;;;8.44;100.00
20752;BME280;10536;51.582;5.016;2022-12-07T00:13:15;101882.72;;;8.29;100.00
20752;BME280;10536;51.582;5.016;2022-12-07T00:18:15;101873.25;;;8.26;100.00
20752;BME280;10536;51.582;5.016;2022-12-07T00:23:15;101861.34;;;8.38;100.00
20752;BME280;10536;51.582;5.016;2022-12-07T00:28:16;101867.53;;;8.49;100.00
20752;BME280;10536;51.582;5.016;2022-12-07T00:33:16;101858.88;;;8.45;100.00
20752;BME280;10536;51.582;5.016;2022-12-07T00:38:17;101855.56;;;8.54;100.00
20752;BME280;10536;51.582;5.016;2022-12-07T00:43:17;101858.22;;;8.60;100.00
20752;BME280;10536;51.582;5.016;2022-12-07T00:48:18;101855.31;;;8.34;100.00
20752;BME280;10536;51.582;5.016;2022-12-07T00:53:18;101855.19;;;8.26;100.00
20752;BME280;10536;51.582;5.016;2022-12-07T00:58:19;101854.34;;;8.27;100.00
20752;BME280;10536;51.582;5.016;2022-12-07T01:03:20;101846.69;;;8.34;100.00
20752;BME280;10536;51.582;5.016;2022-12-07T01:08:21;101839.97;;;8.43;100.00
20752;BME280;10536;51.582;5.016;2022-12-07T01:13:22;101846.69;;;8.35;100.00
20752;BME280;10536;51.582;5.016;2022-12-07T01:18:22;101863.16;;;8.42;100.00
20752;BME280;10536;51.582;5.016;2022-12-07T01:23:22;101867.16;;;8.21;100.00
20752;BME280;10536;51.582;5.016;2022-12-07T01:28:23;101852.78;;;8.39;100.00
20752;BME280;10536;51.582;5.016;2022-12-07T01:33:26;101844.50;;;8.64;100.00
20752;BME280;10536;51.582;5.016;2022-12-07T01:38:27;101847.53;;;8.33;100.00
20752;BME280;10536;51.582;5.016;2022-12-07T01:43:29;101850.84;;;8.22;100.00
20752;BME280;10536;51.582;5.016;2022-12-07T01:48:39;101839.97;;;8.45;100.00
20752;BME280;10536;51.582;5.016;2022-12-07T01:53:43;101851.16;;;8.44;100.00
20752;BME280;10536;51.582;5.016;2022-12-07T01:58:46;101849.19;;;8.27;100.00
20752;BME280;10536;51.582;5.016;2022-12-07T02:03:47;101847.41;;;8.23;100.00
20752;BME280;10536;51.582;5.016;2022-12-07T02:08:49;101841.41;;;8.23;100.00
20752;BME280;10536;51.582;5.016;2022-12-07T02:13:49;101847.19;;;8.05;100.00
20752;BME280;10536;51.582;5.016;2022-12-07T02:35:11;101855.81;;;8.10;100.00
20752;BME280;10536;51.582;5.016;2022-12-07T02:40:24;101851.91;;;8.38;100.00
20752;BME280;10536;51.582;5.016;2022-12-07T02:45:27;101829.47;;;8.31;100.00
20752;BME280;10536;51.582;5.016;2022-12-07T02:50:29;101825.38;;;8.44;100.00
20752;BME280;10536;51.582;5.016;2022-12-07T02:55:39;101833.25;;;8.56;100.00
20752;BME280;10536;51.582;5.016;2022-12-07T03:00:54;101845.16;;;8.46;100.00
20752;BME280;10536;51.582;5.016;2022-12-07T03:06:06;101836.56;;;8.47;100.00
20752;BME280;10536;51.582;5.016;2022-12-07T03:11:16;101843.59;;;8.61;100.00
20752;BME280;10536;51.582;5.016;2022-12-07T03:16:25;101843.72;;;8.72;100.00
20752;BME280;10536;51.582;5.016;2022-12-07T03:21:31;101835.97;;;8.70;100.00
20752;BME280;10536;51.582;5.016;2022-12-07T03:26:39;101828.94;;;8.57;100.00
20752;BME280;10536;51.582;5.016;2022-12-07T03:31:46;101822.16;;;8.63;100.00
20752;BME280;10536;51.582;5.016;2022-12-07T03:36:58;101828.13;;;8.59;100.00
20752;BME280;10536;51.582;5.016;2022-12-07T03:42:03;101833.16;;;8.48;100.00
20752;BME280;10536;51.582;5.016;2022-12-07T03:47:15;101828.19;;;8.67;100.00
20752;BME280;10536;51.582;5.016;2022-12-07T03:57:22;101824.00;;;8.05;100.00
20752;BME280;10536;51.582;5.016;2022-12-07T04:02:26;101840.31;;;8.05;100.00
20752;BME280;10536;51.582;5.016;2022-12-07T04:07:27;101838.06;;;8.30;100.00
20752;BME280;10536;51.582;5.016;2022-12-07T04:12:28;101822.34;;;8.11;100.00
20752;BME280;10536;51.582;5.016;2022-12-07T04:17:28;101833.47;;;8.07;100.00
20752;BME280;10536;51.582;5.016;2022-12-07T04:22:28;101822.34;;;8.11;100.00
20752;BME280;10536;51.582;5.016;2022-12-07T04:27:29;101818.81;;;8.72;100.00
20752;BME280;10536;51.582;5.016;2022-12-07T04:32:29;101821.28;;;8.61;100.00
20752;BME280;10536;51.582;5.016;2022-12-07T04:37:30;101823.63;;;8.43;100.00
20752;BME280;10536;51.582;5.016;2022-12-07T04:42:30;101815.75;;;8.34;100.00
20752;BME280;10536;51.582;5.016;2022-12-07T04:47:31;101814.06;;;8.37;100.00
20752;BME280;10536;51.582;5.016;2022-12-07T04:52:31;101809.81;;;8.41;100.00
20752;BME280;10536;51.582;5.016;2022-12-07T04:57:32;101799.31;;;8.25;100.00
20752;BME280;10536;51.582;5.016;2022-12-07T05:02:32;101798.59;;;8.36;100.00
20752;BME280;10536;51.582;5.016;2022-12-07T05:07:33;101802.59;;;8.12;100.00
20752;BME280;10536;51.582;5.016;2022-12-07T05:12:33;101804.28;;;8.10;100.00
20752;BME280;10536;51.582;5.016;2022-12-07T05:17:34;101794.56;;;7.87;100.00
20752;BME280;10536;51.582;5.016;2022-12-07T05:22:34;101794.47;;;7.83;100.00
20752;BME280;10536;51.582;5.016;2022-12-07T05:27:35;101792.75;;;7.82;100.00
20752;BME280;10536;51.582;5.016;2022-12-07T05:32:35;101789.97;;;7.66;100.00
20752;BME280;10536;51.582;5.016;2022-12-07T05:37:36;101799.84;;;7.39;100.00
20752;BME280;10536;51.582;5.016;2022-12-07T05:42:36;101790.34;;;7.35;100.00
20752;BME280;10536;51.582;5.016;2022-12-07T05:47:38;101786.41;;;7.03;100.00
20752;BME280;10536;51.582;5.016;2022-12-07T05:52:38;101790.59;;;6.98;100.00
20752;BME280;10536;51.582;5.016;2022-12-07T05:57:39;101794.53;;;6.78;100.00
20752;BME280;10536;51.582;5.016;2022-12-07T06:02:39;101799.00;;;6.88;100.00
20752;BME280;10536;51.582;5.016;2022-12-07T06:07:40;101794.91;;;6.52;100.00
20752;BME280;10536;51.582;5.016;2022-12-07T06:12:40;101804.28;;;6.50;100.00
20752;BME280;10536;51.582;5.016;2022-12-07T06:17:42;101800.78;;;6.45;100.00
20752;BME280;10536;51.582;5.016;2022-12-07T06:22:43;101792.56;;;6.20;100.00
20752;BME280;10536;51.582;5.016;2022-12-07T06:27:43;101794.13;;;6.12;100.00
20752;BME280;10536;51.582;5.016;2022-12-07T06:32:43;101797.69;;;6.20;100.00
20752;BME280;10536;51.582;5.016;2022-12-07T06:37:44;101801.50;;;5.97;100.00
20752;BME280;10536;51.582;5.016;2022-12-07T06:42:44;101798.81;;;5.92;100.00
20752;BME280;10536;51.582;5.016;2022-12-07T06:47:45;101799.81;;;5.99;100.00
20752;BME280;10536;51.582;5.016;2022-12-07T06:52:45;101794.03;;;6.07;100.00
20752;BME280;10536;51.582;5.016;2022-12-07T06:57:45;101796.44;;;6.01;100.00
20752;BME280;10536;51.582;5.016;2022-12-07T07:02:46;101800.66;;;5.98;100.00
20752;BME280;10536;51.582;5.016;2022-12-07T07:07:46;101813.50;;;5.98;100.00
20752;BME280;10536;51.582;5.016;2022-12-07T07:12:48;101822.56;;;6.21;100.00
20752;BME280;10536;51.582;5.016;2022-12-07T07:17:48;101820.13;;;6.27;100.00
20752;BME280;10536;51.582;5.016;2022-12-07T07:22:49;101820.00;;;6.21;100.00
20752;BME280;10536;51.582;5.016;2022-12-07T07:27:49;101819.81;;;6.12;100.00
20752;BME280;10536;51.582;5.016;2022-12-07T07:32:49;101817.75;;;6.37;100.00
20752;BME280;10536;51.582;5.016;2022-12-07T07:37:50;101815.09;;;6.33;100.00
20752;BME280;10536;51.582;5.016;2022-12-07T07:42:52;101812.50;;;6.32;100.00
20752;BME280;10536;51.582;5.016;2022-12-07T07:47:53;101808.63;;;6.10;100.00
20752;BME280;10536;51.582;5.016;2022-12-07T07:52:53;101816.47;;;6.16;100.00
20752;BME280;10536;51.582;5.016;2022-12-07T07:57:54;101815.47;;;6.11;100.00
20752;BME280;10536;51.582;5.016;2022-12-07T08:02:55;101819.09;;;6.19;100.00
20752;BME280;10536;51.582;5.016;2022-12-07T08:07:57;101811.63;;;6.31;100.00
20752;BME280;10536;51.582;5.016;2022-12-07T08:12:58;101825.16;;;6.23;100.00
